Time;durP1;ratioP1;P1;durP2;ratioP2;P2;SDS_P1;SDS_P2;PMS_P1;PMS_P2;Temp;Humidity;BMP_temperature;BMP_pressure;BME280_temperature;BME280_humidity;BME280_pressure;Samples;Min_cycle;Max_cycle;Signal;HPM_P1;HPM_P2
2022/03/22 00:04:11;;;;;;;;;;;4.50;99.90;;;3.27;52.83;96922.41;10476184;28;1883;-73
2022/03/22 00:09:14;;;;;;;;;;;4.40;99.90;;;3.39;51.42;96923.47;10478568;28;1864;-72
2022/03/22 00:14:17;;;;;;;;;;;4.40;99.90;;;3.57;51.03;96921.06;10479328;28;1838;-73
2022/03/22 00:19:40;;;;;;;;;;;4.50;99.90;;;3.32;51.81;96927.94;10487857;28;1910;-71
2022/03/22 00:24:44;;;;;;;;;;;4.50;99.90;;;3.36;51.33;96911.38;10479225;28;1860;-73
2022/03/22 00:29:48;;;;;;;;;;;4.30;99.90;;;3.41;52.31;96916.91;10481470;28;2043;-73
2022/03/22 00:34:51;;;;;;;;;;;4.40;99.90;;;3.34;52.46;96931.22;10483989;28;1808;-72
2022/03/22 00:39:55;;;;;;;;;;;4.40;99.90;;;3.21;52.83;96927.47;10479155;28;1992;-73
2022/03/22 00:44:58;;;;;;;;;;;4.30;99.90;;;3.11;53.18;96932.34;10480968;28;2063;-72
2022/03/22 00:50:01;;;;;;;;;;;4.20;99.90;;;2.97;53.37;96920.03;10479489;28;1813;-73
2022/03/22 00:55:06;;;;;;;;;;;4.20;99.90;;;2.88;54.24;96919.38;10461466;22;2471;-72
2022/03/22 01:00:10;;;;;;;;;;;3.90;99.90;;;2.82;53.99;96914.84;10427721;28;1918;-72
2022/03/22 01:05:13;;;;;;;;;;;3.90;99.90;;;2.71;54.63;96918.88;10439215;28;2009;-72
2022/03/22 01:10:16;;;;;;;;;;;3.80;99.90;;;2.62;55.44;96922.72;10429653;28;2282;-71
2022/03/22 01:15:19;;;;;;;;;;;3.80;99.90;;;2.63;56.07;96919.03;10424970;28;1829;-72
2022/03/22 01:20:22;;;;;;;;;;;3.70;99.90;;;2.64;56.46;96925.97;10442124;28;2203;-72
2022/03/22 01:25:27;;;;;;;;;;;3.60;99.90;;;2.41;58.06;96925.41;10430027;28;1993;-71
2022/03/22 01:30:31;;;;;;;;;;;;;;;2.31;58.67;96917.00;10427282;28;2039;-72
2022/03/22 01:35:34;;;;;;;;;;;;;;;2.38;59.34;96925.81;10437551;28;2370;-71
2022/03/22 01:40:38;;;;;;;;;;;3.30;99.90;;;2.22;60.95;96912.84;10430163;28;2337;-71
2022/03/22 01:45:41;;;;;;;;;;;3.40;99.90;;;2.25;61.07;96913.28;10431501;28;2015;-73
2022/03/22 01:50:44;;;;;;;;;;;3.20;99.90;;;2.22;61.56;96918.13;10447402;28;2067;-72
2022/03/22 01:55:47;;;;;;;;;;;3.30;99.90;;;2.15;62.20;96908.28;10447078;28;2015;-72
2022/03/22 02:05:51;;;;;;;;;;;3.30;99.90;;;2.00;62.92;96896.16;10429731;28;1889;-72
2022/03/22 02:06:14;;;;;;;;;;;3.20;99.90;;;2.01;62.84;96900.44;10447575;28;2054;-71
2022/03/22 02:11:17;;;;;;;;;;;3.10;99.90;;;2.02;62.94;96904.72;10429047;28;1958;-71
2022/03/22 02:16:20;;;;;;;;;;;3.00;99.90;;;1.97;64.02;96893.88;10426350;28;1848;-72
2022/03/22 02:21:23;;;;;;;;;;;3.00;99.90;;;1.98;64.48;96887.56;10433081;28;1937;-74
2022/03/22 02:26:26;;;;;;;;;;;3.00;99.90;;;1.87;63.75;96879.13;10431006;28;2025;-71
2022/03/22 02:31:29;;;;;;;;;;;3.10;99.90;;;1.72;63.96;96881.03;10428330;28;2001;-70
2022/03/22 02:36:32;;;;;;;;;;;2.90;99.90;;;1.63;63.98;96877.69;10448748;28;1902;-71
2022/03/22 02:41:34;;;;;;;;;;;2.80;99.90;;;1.84;63.06;96891.94;10445601;28;1999;-70
2022/03/22 02:46:37;;;;;;;;;;;2.80;99.90;;;1.89;62.94;96884.22;10426349;28;1929;-71
2022/03/22 02:51:41;;;;;;;;;;;2.80;99.90;;;1.95;63.34;96887.94;10427579;28;2005;-72
2022/03/22 02:56:44;;;;;;;;;;;2.90;99.90;;;1.88;63.31;96890.53;10451696;28;1870;-72
2022/03/22 03:01:47;;;;;;;;;;;3.00;99.90;;;1.74;63.62;96883.50;10439282;28;1986;-72
2022/03/22 03:06:50;;;;;;;;;;;2.80;99.90;;;1.53;64.65;96885.16;10444079;28;1858;-72
2022/03/22 03:11:53;;;;;;;;;;;2.70;99.90;;;1.55;64.44;96892.91;10444225;28;1933;-72
2022/03/22 03:16:57;;;;;;;;;;;2.70;99.90;;;1.45;64.01;96887.91;10429062;28;1856;-71
2022/03/22 03:22:03;;;;;;;;;;;2.60;99.90;;;1.38;64.85;96892.31;10446644;28;1823;-72
2022/03/22 03:27:06;;;;;;;;;;;2.60;99.90;;;1.49;63.92;96898.97;10426499;28;1821;-72
2022/03/22 03:32:09;;;;;;;;;;;2.50;99.90;;;1.53;63.52;96910.84;10423305;28;1974;-72
2022/03/22 03:37:12;;;;;;;;;;;2.50;99.90;;;1.31;65.03;96910.81;10445469;28;2005;-71
2022/03/22 03:42:15;;;;;;;;;;;2.40;99.90;;;1.33;64.64;96918.56;10442147;28;1800;-72
2022/03/22 03:47:18;;;;;;;;;;;2.40;99.90;;;1.12;65.89;96915.88;10443590;28;1855;-71
2022/03/22 03:52:21;;;;;;;;;;;2.20;99.90;;;0.99;66.51;96912.06;10425465;28;2055;-70
2022/03/22 03:57:24;;;;;;;;;;;2.20;99.90;;;0.94;66.75;96909.16;10424269;28;1853;-72
2022/03/22 04:02:27;;;;;;;;;;;2.10;99.90;;;0.93;67.34;96920.75;10421984;28;2062;-72
2022/03/22 04:07:30;;;;;;;;;;;2.00;99.90;;;0.90;68.13;96913.19;10439136;28;2061;-72
2022/03/22 04:12:34;;;;;;;;;;;2.00;99.90;;;0.99;66.76;96908.59;10421770;28;2092;-71
2022/03/22 04:17:41;;;;;;;;;;;2.00;99.90;;;0.89;66.73;96910.69;10421466;28;1992;-71
2022/03/22 04:22:44;;;;;;;;;;;1.90;99.90;;;0.87;67.42;96916.19;10440962;28;1847;-71
2022/03/22 04:33:08;;;;;;;;;;;1.90;99.90;;;0.78;68.59;96914.66;10437241;28;1883;-71
2022/03/22 04:38:11;;;;;;;;;;;1.90;99.90;;;0.68;68.59;96911.47;10434764;28;1988;-71
2022/03/22 04:43:14;;;;;;;;;;;1.90;99.90;;;0.58;69.44;96910.94;10467311;28;2036;-72
2022/03/22 04:48:18;;;;;;;;;;;1.80;99.90;;;0.58;69.57;96913.59;10452382;28;2072;-72
2022/03/22 04:58:43;;;;;;;;;;;1.70;99.90;;;0.59;69.26;96925.81;10458968;28;1939;-72
2022/03/22 05:03:46;;;;;;;;;;;1.70;99.90;;;0.76;67.76;96929.88;10438266;28;1927;-71
2022/03/22 05:08:49;;;;;;;;;;;1.80;99.90;;;0.77;68.62;96937.66;10439600;28;1991;-72
2022/03/22 05:13:53;;;;;;;;;;;1.80;99.90;;;0.70;68.81;96935.91;10449500;28;1830;-72
2022/03/22 05:18:57;;;;;;;;;;;1.80;99.90;;;0.65;68.44;96944.41;10437340;28;1829;-72
2022/03/22 05:24:00;;;;;;;;;;;1.70;99.90;;;0.71;67.22;96943.69;10432744;28;1805;-71
2022/03/22 05:29:04;;;;;;;;;;;1.70;99.90;;;0.73;66.81;96943.50;10449243;28;1891;-72
2022/03/22 05:34:07;;;;;;;;;;;1.70;99.90;;;0.79;66.89;96945.41;10430502;28;2020;-72
2022/03/22 05:39:10;;;;;;;;;;;1.70;99.90;;;0.89;65.79;96942.47;10430728;28;1959;-70
2022/03/22 05:44:14;;;;;;;;;;;1.80;99.90;;;0.93;64.74;96952.50;10429876;28;1827;-71
2022/03/22 05:49:17;;;;;;;;;;;1.80;99.90;;;1.01;63.92;96944.47;10436673;28;1988;-72
2022/03/22 05:54:20;;;;;;;;;;;1.90;99.90;;;1.16;63.01;96946.28;10451232;28;2022;-72
2022/03/22 05:59:23;;;;;;;;;;;2.00;99.90;;;1.23;63.36;96945.34;10447781;28;2041;-71
2022/03/22 06:04:26;;;;;;;;;;;2.10;99.90;;;1.38;63.73;96953.25;10425417;28;2100;-71
2022/03/22 06:09:30;;;;;;;;;;;2.20;99.90;;;1.64;63.71;96950.06;10427912;28;1918;-71
2022/03/22 06:14:34;;;;;;;;;;;2.40;99.90;;;1.96;62.82;96943.44;10444917;28;1960;-70
2022/03/22 06:19:38;;;;;;;;;;;2.70;99.90;;;2.19;62.89;96953.03;10443012;28;2042;-71
2022/03/22 06:24:42;;;;;;;;;;;2.90;99.90;;;2.43;61.75;96955.25;10450146;28;1838;-71
2022/03/22 06:29:45;;;;;;;;;;;3.10;99.90;;;2.62;61.40;96957.22;10429789;28;2034;-70
2022/03/22 06:34:51;;;;;;;;;;;3.30;99.90;;;2.68;61.07;96960.94;10449547;28;1876;-73
2022/03/22 06:39:54;;;;;;;;;;;3.40;99.90;;;2.71;60.25;96965.84;10441756;28;1839;-72
2022/03/22 06:44:58;;;;;;;;;;;3.50;99.90;;;2.67;60.54;96965.44;10431179;28;1926;-72
2022/03/22 06:50:01;;;;;;;;;;;3.60;99.90;;;2.74;60.52;96968.13;10430694;28;1973;-72
2022/03/22 06:55:05;;;;;;;;;;;3.50;99.90;;;2.91;59.67;96972.09;10456042;28;1944;-73
2022/03/22 07:00:08;;;;;;;;;;;3.60;99.90;;;2.88;59.84;96977.81;10445047;28;1812;-74
2022/03/22 07:05:12;;;;;;;;;;;3.70;99.90;;;3.15;59.00;96975.28;10444654;28;2070;-74
2022/03/22 07:10:15;;;;;;;;;;;3.80;99.90;;;3.33;58.29;96977.41;10429819;28;1912;-73
2022/03/22 07:15:19;;;;;;;;;;;4.00;99.90;;;3.41;58.72;96979.88;10426863;28;1841;-73
2022/03/22 07:20:23;;;;;;;;;;;4.20;99.90;;;3.65;57.34;96982.03;10445241;28;1986;-72
2022/03/22 07:25:28;;;;;;;;;;;4.30;99.90;;;3.69;57.38;96983.28;10445939;28;1888;-72
2022/03/22 07:30:31;;;;;;;;;;;4.50;99.90;;;3.84;57.04;96985.75;10467364;28;1891;-73
2022/03/22 07:35:34;;;;;;;;;;;4.60;99.90;;;4.40;55.90;96987.25;10485422;28;1811;-72
2022/03/22 07:40:38;;;;;;;;;;;4.90;99.90;;;4.49;55.10;96986.84;10439040;28;1924;-74
2022/03/22 07:45:41;;;;;;;;;;;5.20;99.90;;;4.84;53.88;96987.44;10425464;28;1878;-74
2022/03/22 07:56:04;;;;;;;;;;;5.70;99.90;;;5.20;53.37;96986.09;10438662;28;1853;-73
2022/03/22 08:01:08;;;;;;;;;;;5.90;99.90;;;5.22;52.77;96978.72;10423566;28;1848;-74
2022/03/22 08:06:11;;;;;;;;;;;6.00;99.90;;;5.84;51.87;96984.38;10430396;28;2146;-75
2022/03/22 08:11:15;;;;;;;;;;;6.30;99.90;;;5.90;51.58;96992.34;10447434;28;2071;-72
2022/03/22 08:16:18;;;;;;;;;;;6.60;99.90;;;6.27;50.13;96987.22;10471979;28;1744;-73
2022/03/22 08:21:21;;;;;;;;;;;6.80;99.90;;;6.61;49.44;96988.59;10518152;22;2384;-72
2022/03/22 08:26:25;;;;;;;;;;;7.20;99.90;;;6.76;49.41;96985.59;10509378;28;1841;-72
2022/03/22 08:31:28;;;;;;;;;;;7.30;99.90;;;6.83;47.84;96983.69;10505242;28;2249;-72
2022/03/22 08:36:33;;;;;;;;;;;7.60;99.90;;;7.45;46.75;96978.31;10530871;28;1883;-72
2022/03/22 08:41:36;;;;;;;;;;;7.90;99.90;;;7.44;46.55;96985.50;10515818;28;1906;-71
2022/03/22 08:46:39;;;;;;;;;;;8.20;99.90;;;7.36;46.70;96980.44;10531060;28;1887;-73
2022/03/22 08:51:43;;;;;;;;;;;8.20;99.90;;;7.66;46.49;96982.38;10514557;28;1980;-72
2022/03/22 08:56:47;;;;;;;;;;;8.20;99.90;;;7.72;46.15;96973.44;10517023;28;1774;-71
2022/03/22 09:01:50;;;;;;;;;;;8.40;99.90;;;7.61;46.03;96968.84;10512706;28;1832;-70
2022/03/22 09:06:54;;;;;;;;;;;8.40;99.90;;;7.78;45.58;96973.34;10524545;28;1947;-71
2022/03/22 09:11:57;;;;;;;;;;;8.50;99.90;;;8.02;45.53;96971.59;10535001;28;1996;-70
2022/03/22 09:17:00;;;;;;;;;;;8.70;99.90;;;8.49;43.93;96963.69;10544228;28;1780;-71
2022/03/22 09:22:05;;;;;;;;;;;;;;;9.04;42.82;96965.22;10563299;28;1871;-70
2022/03/22 09:27:08;;;;;;;;;;;;;;;8.79;43.25;96960.91;10540545;28;1777;-70
2022/03/22 09:32:12;;;;;;;;;;;;;;;8.85;43.32;96965.34;10520231;28;2330;-70
2022/03/22 09:37:17;;;;;;;;;;;;;;;8.92;43.01;96962.53;10507881;28;1936;-71
2022/03/22 09:42:21;;;;;;;;;;;;;;;9.30;41.96;96953.16;10510742;28;2174;-72
2022/03/22 09:47:24;;;;;;;;;;;;;;;9.32;41.23;96953.75;10536100;28;2188;-72
2022/03/22 09:52:28;;;;;;;;;;;;;;;9.41;40.69;96944.25;10510627;28;2236;-71
2022/03/22 09:57:32;;;;;;;;;;;;;;;9.43;40.11;96937.63;10530200;28;1923;-72
2022/03/22 10:02:36;;;;;;;;;;;;;;;9.38;40.38;96944.75;10530839;28;1881;-71
2022/03/22 10:07:40;;;;;;;;;;;;;;;9.56;39.18;96947.25;10507268;28;1820;-71
2022/03/22 10:12:43;;;;;;;;;;;;;;;9.93;38.82;96939.66;10535633;28;1906;-71
2022/03/22 10:17:47;;;;;;;;;;;;;;;10.13;38.16;96936.50;10508926;28;2046;-71
2022/03/22 10:22:52;;;;;;;;;;;;;;;10.23;38.00;96936.69;10526464;28;1868;-70
2022/03/22 10:27:55;;;;;;;;;;;;;;;10.40;37.46;96935.91;10528704;28;1869;-71
2022/03/22 10:33:01;;;;;;;;;;;;;;;10.48;37.25;96941.69;10526779;28;1918;-72
2022/03/22 10:38:05;;;;;;;;;;;;;;;10.51;36.66;96922.41;10510416;28;1817;-72
2022/03/22 10:43:10;;;;;;;;;;;;;;;10.87;36.05;96933.69;10518883;28;1805;-72
2022/03/22 10:48:13;;;;;;;;;;;11.40;99.90;;;11.02;35.41;96925.84;10527100;28;1802;-72
2022/03/22 10:53:22;;;;;;;;;;;;;;;11.17;34.96;96919.03;10521949;28;1910;-72
2022/03/22 10:58:31;;;;;;;;;;;;;;;11.35;33.97;96918.72;10505770;28;1927;-71
2022/03/22 11:03:35;;;;;;;;;;;;;;;10.99;34.61;96917.44;10523241;28;1786;-73
2022/03/22 11:08:40;;;;;;;;;;;;;;;11.15;34.19;96911.22;10522045;28;1857;-73
2022/03/22 11:13:44;;;;;;;;;;;;;;;11.33;34.28;96902.84;10528951;28;1990;-71
2022/03/22 11:18:48;;;;;;;;;;;;;;;11.64;34.50;96903.16;10525526;28;1868;-72
2022/03/22 11:23:52;;;;;;;;;;;;;;;11.77;34.78;96894.72;10504604;28;1880;-70
2022/03/22 11:28:56;;;;;;;;;;;;;;;11.74;34.52;96897.91;10522495;28;1836;-71
2022/03/22 11:34:13;;;;;;;;;;;;;;;11.95;32.61;96887.34;10522711;28;1997;-71
2022/03/22 11:39:17;;;;;;;;;;;;;;;11.80;32.54;96883.41;10504611;28;1737;-72
2022/03/22 11:44:22;;;;;;;;;;;;;;;11.93;33.32;96873.34;10500164;28;1724;-72
2022/03/22 11:49:26;;;;;;;;;;;;;;;11.94;32.51;96872.25;10525875;28;1873;-70
2022/03/22 11:54:29;;;;;;;;;;;;;;;12.12;31.38;96866.50;10502274;28;1913;-71
2022/03/22 11:59:33;;;;;;;;;;;;;;;12.39;31.73;96861.88;10506833;28;1867;-72
2022/03/22 12:04:37;;;;;;;;;;;;;;;12.11;30.31;96862.19;10504724;28;1725;-71
2022/03/22 12:09:41;;;;;;;;;;;13.00;96.80;;;12.20;30.19;96857.94;10505213;28;1966;-71
2022/03/22 12:14:47;;;;;;;;;;;13.00;97.10;;;12.35;30.62;96851.88;10518458;28;1854;-72
2022/03/22 12:19:52;;;;;;;;;;;13.10;98.70;;;12.28;29.01;96860.19;10502479;28;1940;-72
2022/03/22 12:24:55;;;;;;;;;;;13.20;96.40;;;12.17;28.62;96850.38;10503779;28;1844;-72
2022/03/22 12:29:58;;;;;;;;;;;13.10;96.10;;;12.41;29.05;96848.16;10501375;28;1984;-72
2022/03/22 12:35:01;;;;;;;;;;;13.10;96.30;;;12.42;27.94;96844.38;10503446;28;1819;-73
2022/03/22 12:40:04;;;;;;;;;;;13.20;95.70;;;12.58;28.86;96839.88;10529293;28;1899;-72
2022/03/22 12:45:07;;;;;;;;;;;13.40;96.20;;;12.57;26.44;96839.06;10523967;28;2019;-72
2022/03/22 12:50:10;;;;;;;;;;;13.30;93.50;;;12.69;26.43;96841.56;10503873;28;1980;-72
2022/03/22 12:55:17;;;;;;;;;;;;;;;12.82;26.74;96826.81;10527760;28;1738;-72
2022/03/22 13:00:21;;;;;;;;;;;;;;;12.98;27.39;96825.81;10505122;28;1863;-73
2022/03/22 13:05:25;;;;;;;;;;;13.70;99.90;;;12.97;27.63;96824.97;10506390;28;1848;-72
2022/03/22 13:16:09;;;;;;;;;;;13.80;96.70;;;13.12;27.72;96807.25;10505660;28;1798;-72
2022/03/22 13:21:13;;;;;;;;;;;13.80;99.20;;;13.22;27.70;96804.59;10514117;28;1902;-71
2022/03/22 13:26:16;;;;;;;;;;;13.90;99.90;;;13.26;29.09;96803.00;10515153;28;1523;-72
2022/03/22 13:31:20;;;;;;;;;;;14.00;99.90;;;13.16;29.81;96805.63;10512006;28;1917;-71
2022/03/22 13:36:23;;;;;;;;;;;13.90;99.90;;;13.19;29.16;96786.22;10529444;28;1828;-70
2022/03/22 13:41:30;;;;;;;;;;;13.90;99.90;;;13.27;29.03;96790.31;10508618;28;1860;-71
2022/03/22 13:46:34;;;;;;;;;;;14.00;99.90;;;13.32;29.93;96785.75;10508307;28;1823;-71
2022/03/22 13:51:38;;;;;;;;;;;14.00;99.90;;;13.31;30.06;96788.72;10511945;28;2035;-72
2022/03/22 13:56:41;;;;;;;;;;;14.00;99.90;;;13.46;29.23;96777.94;10510580;28;1888;-71
2022/03/22 14:01:46;;;;;;;;;;;14.20;99.20;;;13.56;27.85;96763.66;10527161;28;1879;-72
2022/03/22 14:06:50;;;;;;;;;;;14.20;96.80;;;13.69;28.91;96765.81;10511749;28;1927;-72
2022/03/22 14:11:54;;;;;;;;;;;14.40;99.90;;;13.55;28.46;96762.00;10533794;28;2093;-70
2022/03/22 14:17:00;;;;;;;;;;;14.50;99.90;;;13.53;28.21;96763.09;10527355;28;2350;-72
2022/03/22 14:22:04;;;;;;;;;;;14.30;99.90;;;13.65;28.14;96759.31;10525703;28;1835;-73
2022/03/22 14:27:07;;;;;;;;;;;14.30;99.90;;;13.72;26.74;96760.69;10506349;22;2520;-83
2022/03/22 14:32:11;;;;;;;;;;;14.50;99.90;;;13.68;25.87;96758.81;10528791;28;1984;-82
2022/03/22 14:37:16;;;;;;;;;;;14.40;99.90;;;13.80;25.76;96756.63;10525838;28;1811;-83
2022/03/22 14:42:20;;;;;;;;;;;14.50;99.90;;;13.85;25.46;96753.94;10531682;28;1889;-85
2022/03/22 14:47:25;;;;;;;;;;;14.50;99.90;;;13.63;25.67;96756.09;10534540;28;1843;-85
2022/03/22 15:03:13;;;;;;;;;;;14.30;99.90;;;13.61;25.50;96744.72;10556635;28;1815;-86
2022/03/22 15:08:20;;;;;;;;;;;;;;;13.66;25.08;96734.75;10548963;28;1843;-85
2022/03/22 15:13:25;;;;;;;;;;;;;;;13.57;24.97;96735.56;10577611;28;1945;-83
2022/03/22 15:18:30;;;;;;;;;;;14.40;96.20;;;13.52;25.24;96731.75;10562460;28;1456;-83
2022/03/22 15:23:37;;;;;;;;;;;14.30;94.50;;;13.48;24.75;96733.38;10535469;28;1815;-86
2022/03/22 15:28:42;;;;;;;;;;;14.20;93.30;;;13.51;24.22;96730.13;10549433;28;1834;-86
2022/03/22 15:33:48;;;;;;;;;;;14.30;92.40;;;13.51;23.32;96726.63;10549061;28;1969;-86
2022/03/22 15:38:52;;;;;;;;;;;14.20;91.80;;;13.46;22.43;96730.13;10537040;28;1824;-86
2022/03/22 15:43:55;;;;;;;;;;;14.20;90.70;;;13.48;22.22;96730.66;10563862;28;1772;-85
2022/03/22 15:48:59;;;;;;;;;;;14.20;91.20;;;13.39;21.79;96724.19;10538158;28;1926;-84
2022/03/22 15:54:03;;;;;;;;;;;14.20;95.10;;;13.48;21.85;96722.56;10542176;28;1952;-85
2022/03/22 15:59:07;;;;;;;;;;;14.20;89.30;;;13.29;22.69;96723.34;10537555;28;1822;-86
2022/03/22 16:04:11;;;;;;;;;;;14.10;89.30;;;13.29;22.07;96721.44;10540807;28;1836;-83
2022/03/22 16:09:16;;;;;;;;;;;14.00;88.90;;;13.15;22.76;96728.41;10537211;28;1875;-82
2022/03/22 16:14:19;;;;;;;;;;;14.00;89.70;;;13.22;22.70;96729.81;10536217;28;1910;-83
2022/03/22 16:19:23;;;;;;;;;;;14.00;89.80;;;13.20;22.17;96725.75;10555670;28;1762;-80
2022/03/22 16:24:26;;;;;;;;;;;14.00;90.40;;;13.17;22.57;96727.09;10528902;28;2058;-84
2022/03/22 16:29:30;;;;;;;;;;;13.90;89.10;;;13.14;22.17;96722.22;10550898;22;2516;-79
2022/03/22 16:39:54;;;;;;;;;;;13.80;88.20;;;12.91;22.34;96728.88;10499568;28;1899;-80
2022/03/22 16:44:58;;;;;;;;;;;13.80;87.90;;;12.94;22.58;96733.75;10478502;28;2232;-79
2022/03/22 16:50:04;;;;;;;;;;;13.70;87.80;;;12.69;23.14;96744.47;10486304;28;1820;-78
2022/03/22 16:55:09;;;;;;;;;;;13.60;88.00;;;12.53;22.81;96740.06;10486452;28;1979;-77
2022/03/22 17:00:15;;;;;;;;;;;13.40;88.60;;;12.54;23.52;96744.41;10495356;28;1845;-79
2022/03/22 17:05:19;;;;;;;;;;;13.30;88.30;;;12.43;23.03;96747.03;10485853;28;1859;-77
2022/03/22 17:10:25;;;;;;;;;;;13.30;88.40;;;12.29;23.52;96750.47;10487961;28;1857;-77
2022/03/22 17:15:28;;;;;;;;;;;13.10;88.30;;;12.04;24.23;96743.81;10486236;28;1899;-80
2022/03/22 17:20:32;;;;;;;;;;;13.00;88.80;;;12.03;24.52;96753.00;10517469;28;1819;-79
2022/03/22 17:25:35;;;;;;;;;;;13.00;88.70;;;11.94;23.23;96751.00;10489540;28;2006;-79
2022/03/22 17:30:39;;;;;;;;;;;12.80;88.30;;;11.73;23.76;96755.41;10495172;28;1911;-78
2022/03/22 17:35:43;;;;;;;;;;;12.60;88.30;;;11.47;23.95;96751.69;10494327;28;2378;-81
2022/03/22 17:40:46;;;;;;;;;;;12.40;88.80;;;11.50;24.79;96753.84;10512081;28;1877;-78
2022/03/22 17:45:49;;;;;;;;;;;12.30;89.30;;;11.01;25.61;96759.28;10521183;28;1968;-78
2022/03/22 17:50:53;;;;;;;;;;;12.20;89.60;;;10.89;25.88;96761.28;10513050;28;1903;-80
2022/03/22 17:55:56;;;;;;;;;;;12.00;89.90;;;10.62;26.38;96759.34;10499715;28;1942;-78
2022/03/22 18:00:59;;;;;;;;;;;11.70;90.40;;;10.57;27.32;96769.25;10479771;28;1984;-78
2022/03/22 18:06:02;;;;;;;;;;;11.50;91.40;;;10.69;26.79;96761.88;10482818;28;1889;-77
2022/03/22 18:16:28;;;;;;;;;;;11.40;91.10;;;10.33;27.80;96766.75;10502182;28;2295;-77
2022/03/22 18:21:40;;;;;;;;;;;11.30;91.60;;;9.96;28.53;96774.50;10485477;28;1863;-79
2022/03/22 18:26:44;;;;;;;;;;;11.10;91.80;;;9.62;29.82;96773.69;10485336;28;1888;-79
2022/03/22 18:31:46;;;;;;;;;;;10.90;92.50;;;9.33;30.84;96770.22;10506091;28;1910;-77
2022/03/22 18:36:50;;;;;;;;;;;10.60;92.80;;;9.13;31.52;96776.84;10489215;28;1544;-79
2022/03/22 18:41:53;;;;;;;;;;;10.30;93.60;;;9.02;31.25;96775.00;10483597;28;1931;-79
2022/03/22 18:46:56;;;;;;;;;;;10.20;94.10;;;9.06;32.26;96773.50;10515715;28;2185;-81
2022/03/22 18:52:00;;;;;;;;;;;10.10;94.30;;;8.97;31.79;96774.94;10525671;28;1949;-80
2022/03/22 18:57:03;;;;;;;;;;;10.00;94.10;;;8.81;31.83;96776.50;10506732;28;1874;-77
2022/03/22 19:02:06;;;;;;;;;;;10.00;94.20;;;8.62;32.44;96769.66;10484377;28;1817;-77
2022/03/22 19:07:09;;;;;;;;;;;9.90;95.30;;;8.45;33.31;96774.94;10468117;28;1828;-74
2022/03/22 19:12:12;;;;;;;;;;;9.70;97.00;;;8.53;33.09;96777.25;10477722;28;1906;-74
2022/03/22 19:22:37;;;;;;;;;;;9.60;99.90;;;8.57;33.07;96774.91;10476694;28;1975;-74
2022/03/22 19:27:42;;;;;;;;;;;9.60;99.90;;;8.74;32.31;96770.44;10475849;28;1785;-74
2022/03/22 19:32:58;;;;;;;;;;;9.50;93.80;;;8.77;32.58;96771.84;10469220;28;1989;-75
2022/03/22 19:38:02;;;;;;;;;;;9.70;92.50;;;8.69;31.98;96769.53;10489575;28;1926;-77
2022/03/22 19:43:05;;;;;;;;;;;9.60;92.20;;;8.36;32.65;96774.47;10487888;28;1994;-78
2022/03/22 19:48:09;;;;;;;;;;;9.50;92.60;;;8.13;33.81;96780.63;10477059;28;1661;-76
2022/03/22 19:53:16;;;;;;;;;;;9.30;92.70;;;8.03;34.65;96777.72;10476950;28;1914;-76
2022/03/22 19:58:20;;;;;;;;;;;9.20;94.80;;;7.91;33.46;96779.59;10474529;28;2059;-77
2022/03/22 20:03:24;;;;;;;;;;;9.10;95.80;;;7.76;35.06;96779.22;10481284;28;1892;-77
2022/03/22 20:08:28;;;;;;;;;;;9.00;99.90;;;7.57;35.71;96779.31;10474624;28;1808;-77
2022/03/22 20:13:33;;;;;;;;;;;8.70;99.90;;;7.50;35.21;96778.59;10472178;28;1975;-76
2022/03/22 20:18:36;;;;;;;;;;;8.70;99.90;;;7.39;36.93;96775.91;10470974;28;1841;-74
2022/03/22 20:23:39;;;;;;;;;;;8.70;99.90;;;7.32;37.46;96778.69;10469128;28;1851;-76
2022/03/22 20:28:42;;;;;;;;;;;8.50;99.90;;;7.15;38.28;96780.34;10470372;28;1852;-76
2022/03/22 20:33:45;;;;;;;;;;;8.30;99.90;;;7.07;38.96;96778.81;10469508;28;2009;-77
2022/03/22 20:38:48;;;;;;;;;;;8.20;99.90;;;7.09;37.80;96775.91;10464159;28;1844;-76
2022/03/22 20:43:51;;;;;;;;;;;8.20;99.90;;;7.01;36.99;96780.53;10487888;28;1848;-77
2022/03/22 20:48:55;;;;;;;;;;;8.10;99.90;;;7.03;37.29;96780.31;10470979;28;1848;-76
2022/03/22 20:53:59;;;;;;;;;;;8.10;99.90;;;6.99;37.90;96779.94;10489584;28;1894;-76
2022/03/22 20:59:08;;;;;;;;;;;8.10;99.90;;;6.94;39.75;96787.84;10481839;28;1872;-77
2022/03/22 21:04:11;;;;;;;;;;;8.00;99.90;;;6.97;40.00;96784.69;10482584;28;1728;-77
2022/03/22 21:09:14;;;;;;;;;;;8.00;99.90;;;6.82;41.52;96786.97;10478605;28;1835;-78
2022/03/22 21:14:18;;;;;;;;;;;8.00;99.90;;;6.60;42.41;96783.91;10470491;28;2027;-76
2022/03/22 21:19:22;;;;;;;;;;;7.90;99.90;;;6.50;42.97;96780.97;10469517;28;1864;-75
2022/03/22 21:24:25;;;;;;;;;;;7.70;99.90;;;6.44;43.50;96787.19;10474364;28;1840;-78
2022/03/22 21:29:28;;;;;;;;;;;7.60;99.90;;;6.33;42.91;96778.06;10474730;28;1644;-76
2022/03/22 21:34:31;;;;;;;;;;;7.50;99.90;;;6.20;44.79;96779.03;10480183;28;2040;-78
2022/03/22 21:39:35;;;;;;;;;;;7.40;99.90;;;6.04;45.67;96776.91;10478298;28;1760;-76
2022/03/22 21:44:38;;;;;;;;;;;7.30;99.90;;;5.91;45.59;96774.38;10487993;28;2490;-77
2022/03/22 21:49:41;;;;;;;;;;;7.20;99.90;;;5.95;44.27;96781.72;10494412;28;1793;-78
2022/03/22 21:54:44;;;;;;;;;;;7.00;99.90;;;6.04;43.23;96781.44;10513135;28;1895;-77
2022/03/22 21:59:47;;;;;;;;;;;7.10;99.90;;;5.75;45.18;96780.25;10510844;28;1834;-76
2022/03/22 22:04:51;;;;;;;;;;;7.00;99.90;;;5.69;45.89;96768.59;10507858;28;1886;-74
2022/03/22 22:09:54;;;;;;;;;;;;;;;5.64;45.61;96761.22;10473411;28;1895;-79
2022/03/22 22:14:59;;;;;;;;;;;;;;;5.55;46.31;96759.06;10481550;28;1918;-77
2022/03/22 22:20:02;;;;;;;;;;;;;;;5.31;47.96;96766.81;10504372;28;1783;-76
2022/03/22 22:25:07;;;;;;;;;;;;;;;5.20;48.78;96764.03;10510405;28;1819;-78
2022/03/22 22:30:11;;;;;;;;;;;;;;;5.17;48.93;96759.97;10482969;28;1871;-74
2022/03/22 22:35:15;;;;;;;;;;;;;;;5.11;49.96;96758.16;10505349;22;2660;-71
2022/03/22 22:40:18;;;;;;;;;;;;;;;5.03;50.08;96761.09;10518862;28;2033;-71
2022/03/22 22:45:24;;;;;;;;;;;;;;;4.88;50.90;96748.84;10526670;28;1874;-70
2022/03/22 22:50:28;;;;;;;;;;;;;;;4.84;50.83;96760.97;10555157;28;1986;-70
2022/03/22 22:55:31;;;;;;;;;;;6.20;99.90;;;4.73;51.87;96760.81;10547717;28;1977;-70
2022/03/22 23:05:58;;;;;;;;;;;5.80;99.90;;;4.69;51.45;96749.78;10526693;28;1818;-70
2022/03/22 23:11:00;;;;;;;;;;;5.80;99.90;;;4.58;52.66;96753.94;10520852;28;1972;-69
2022/03/22 23:16:03;;;;;;;;;;;5.70;99.90;;;4.47;54.16;96743.13;10523184;28;1977;-70
2022/03/22 23:21:07;;;;;;;;;;;5.60;99.90;;;4.42;55.13;96751.72;10521442;28;1981;-70
2022/03/22 23:26:10;;;;;;;;;;;5.60;99.90;;;4.37;54.36;96753.38;10525153;28;1835;-70
2022/03/22 23:31:13;;;;;;;;;;;5.50;99.90;;;4.25;55.21;96754.03;10524827;28;1843;-70
2022/03/22 23:36:17;;;;;;;;;;;5.40;99.90;;;4.23;55.82;96755.28;10522333;28;2041;-70
2022/03/22 23:41:20;;;;;;;;;;;5.40;99.90;;;4.17;57.52;96754.28;10517317;28;1941;-71
2022/03/22 23:46:24;;;;;;;;;;;5.30;99.90;;;4.07;56.99;96756.53;10523369;28;1882;-71
2022/03/22 23:51:27;;;;;;;;;;;5.20;99.90;;;3.96;56.45;96749.22;10522050;28;1828;-71
2022/03/22 23:56:31;;;;;;;;;;;5.10;99.90;;;3.90;57.40;96748.19;10518700;28;1910;-71
